Canovanas, PR

2:27 PM AST on March 06, 2015 (GMT -0400)
Ciudad Jardin | Change Station
CLOSE
Current Station
Personal Weather Station
Location: Carolina, PR
Elevation: 10 ft
Nearby Weather Stations

Elev 10 ft 18.37 °N, 65.93 °W | Updated 17 seconds ago

Scattered Clouds
Scattered Clouds
84.5 °F
Feels Like 87 °F
N
14.0
Wind Variable Wind from East
Gusts 15.0 mph

Today
High -- | Low -- °F
--% Chance of Precip.
Yesterday
High -- | Low -- °F
Precip. -- in
6:39 AM 6:31 PM
Full, 99% visible
Pressure 30.10 in
Visibility 10.0 miles
Clouds Few 3500 ft
Scattered Clouds 6000 ft
Heat Index 87 °F
Dew Point 67 °F
Humidity 55%
Rainfall in
Snow Depth Not available.
UV 7 out of 12
Pollen Not available.
Air Quality Not available.
Flu Activity Not available.
METAR TJSJ 061756Z 08015G22KT 10SM FEW035 SCT060 29/19 A3010 RMK AO2 SLP192 T02940194 10294 20244 56023

More Conditions Fewer Conditions

Pressure 30.10 in
Visibility 10.0 miles
Clouds Few 3500 ft
Scattered Clouds 6000 ft
Heat Index 87 °F
Dew Point 67 °F
Humidity 55%
Rainfall in
Snow Depth Not available.
UV 7 out of 12
Pollen Not available.
Air Quality Not available.
Flu Activity Not available.
METAR TJSJ 061756Z 08015G22KT 10SM FEW035 SCT060 29/19 A3010 RMK AO2 SLP192 T02940194 10294 20244 56023

More Conditions Fewer Conditions

10-Day Weather Forecast

Almanac

Astronomy

Mar. 06, 2015 Rise Set
Actual Time
Civil Twilight
Nautical Twilight
Astronomical Twilight
Moon
Length of Visible Light
Length of Day
Tomorrow will be .
, % of the Moon is Illuminated

Today's Extremes

State Highs State Lows

Community

WunderPhotos

Upload Photos

1,803,359 photos uploaded!

WunderBlogs® & News

Nearby

Air Quality

  Air Quality AQ Index Pollutant
Not available.

Snow Depth

Station Depth Elevation

Earthquake Activity

City Distance Mag. Time & Date
Minimum magnitude displayed is 2.5.

Coastal Water Temperatures

Place Temperature

Nearby Weather Stations